Terminal Aerodrome Forecast
Issued by NWS

Home | Current Version | Previous Version | Text Only | Print | Product List | Glossary On
Versions: 1 2 3 4 5 6 7 8 9 10 11 12 13
000
FTUS43 KTOP 011732
TAFFOE
TAF
KFOE 011732Z 0118/0218 15010KT P6SM SCT080
     FM012100 25006KT P6SM VCTS SCT060CB
     FM012300 03008KT P6SM BKN060
     FM021300 02006KT P6SM SCT025 BKN070=

USA.gov is the U.S. government's official web portal to all federal, state and local government web resources and services.